Time;durP1;ratioP1;P1;durP2;ratioP2;P2;SDS_P1;SDS_P2;PMS_P1;PMS_P2;Temp;Humidity;BMP_temperature;BMP_pressure;BME280_temperature;BME280_humidity;BME280_pressure;Samples;Min_cycle;Max_cycle;Signal;HPM_P1;HPM_P2
2022/03/28 00:01:20;;;;;;;12.73;8.27;;;7.90;56.50;;;;;;5089597;28;20665;-88
2022/03/28 00:03:48;;;;;;;14.48;10.13;;;7.80;56.20;;;;;;5072768;28;20207;-87
2022/03/28 00:06:15;;;;;;;15.77;9.27;;;7.80;56.10;;;;;;5070360;28;20192;-88
2022/03/28 00:08:43;;;;;;;11.27;8.85;;;7.80;56.10;;;;;;5079486;28;20267;-88
2022/03/28 00:11:10;;;;;;;13.40;9.63;;;7.70;56.10;;;;;;5070575;28;20318;-88
2022/03/28 00:13:41;;;;;;;15.27;9.45;;;7.70;56.90;;;;;;5083002;28;20209;-88
2022/03/28 00:16:09;;;;;;;15.60;9.82;;;7.70;57.30;;;;;;5090369;28;20219;-88
2022/03/28 00:18:36;;;;;;;11.43;9.25;;;7.60;57.20;;;;;;5083397;28;20276;-88
2022/03/28 00:21:05;;;;;;;12.70;9.60;;;7.60;57.10;;;;;;5071138;28;20208;-88
2022/03/28 00:23:33;;;;;;;12.00;9.02;;;7.50;57.60;;;;;;5085907;28;20677;-88
2022/03/28 00:26:01;;;;;;;14.95;11.23;;;7.50;57.70;;;;;;5074691;28;20198;-88
2022/03/28 00:28:28;;;;;;;11.65;9.00;;;7.60;57.80;;;;;;5070421;28;20291;-88
2022/03/28 00:30:57;;;;;;;17.63;9.13;;;7.60;57.20;;;;;;5083176;28;20202;-88
2022/03/28 00:33:26;;;;;;;14.02;8.88;;;7.30;59.50;;;;;;5075858;28;20571;-88
2022/03/28 00:35:55;;;;;;;14.57;9.45;;;6.60;58.20;;;;;;5077303;28;20323;-87
2022/03/28 00:38:24;;;;;;;13.82;9.00;;;7.60;56.90;;;;;;5084698;28;20202;-88
2022/03/28 00:40:51;;;;;;;13.90;9.85;;;7.60;56.80;;;;;;5078729;28;20220;-88
2022/03/28 00:43:20;;;;;;;11.27;8.75;;;7.50;56.60;;;;;;5084496;28;20195;-88
2022/03/28 00:45:48;;;;;;;16.42;8.90;;;7.40;60.70;;;;;;5088210;28;20199;-88
2022/03/28 00:48:15;;;;;;;12.63;9.73;;;7.40;57.30;;;;;;5086635;28;20285;-87
2022/03/28 00:50:42;;;;;;;13.88;8.88;;;7.40;57.20;;;;;;5070105;28;20279;-88
2022/03/28 00:53:13;;;;;;;16.02;8.70;;;7.30;57.50;;;;;;5086817;28;20207;-88
2022/03/28 00:55:42;;;;;;;17.80;9.70;;;7.30;58.30;;;;;;5088079;28;20214;-88
2022/03/28 00:58:09;;;;;;;15.27;9.80;;;7.20;58.40;;;;;;5090444;28;20202;-88
2022/03/28 01:00:36;;;;;;;16.05;8.90;;;7.20;58.00;;;;;;5076767;28;20206;-88
2022/03/28 01:03:04;;;;;;;12.85;10.38;;;7.20;58.10;;;;;;5079877;28;20224;-88
2022/03/28 01:05:31;;;;;;;12.30;8.68;;;8.00;58.40;;;;;;5069833;28;20591;-87
2022/03/28 01:08:00;;;;;;;14.98;9.70;;;7.20;57.80;;;;;;5075506;28;20302;-88
2022/03/28 01:10:29;;;;;;;10.85;8.25;;;7.10;62.40;;;;;;5090402;28;20214;-88
2022/03/28 01:13:02;;;;;;;11.23;8.57;;;7.20;58.60;;;;;;5072759;28;20683;-88
2022/03/28 01:15:30;;;;;;;12.82;8.82;;;7.20;58.50;;;;;;5069892;28;20221;-88
2022/03/28 01:18:05;;;;;;;14.15;8.48;;;7.20;58.80;;;;;;5079168;28;20202;-88
2022/03/28 01:20:35;;;;;;;14.00;9.18;;;7.20;57.90;;;;;;5092468;28;20203;-87
2022/03/28 01:23:04;;;;;;;11.65;7.78;;;7.10;58.30;;;;;;5075934;28;20213;-88
2022/03/28 01:25:32;;;;;;;15.90;9.55;;;7.00;58.80;;;;;;5088720;28;20618;-88
2022/03/28 01:28:00;;;;;;;18.10;9.52;;;6.90;59.10;;;;;;5084786;28;20300;-87
2022/03/28 01:30:31;;;;;;;16.15;9.73;;;6.90;58.90;;;;;;5087624;28;20226;-88
2022/03/28 01:33:00;;;;;;;14.98;8.63;;;7.00;58.80;;;;;;5073121;28;20215;-87
2022/03/28 01:35:33;;;;;;;12.50;8.85;;;6.90;61.80;;;;;;5058824;28;20199;-88
2022/03/28 01:38:01;;;;;;;11.93;9.90;;;6.90;59.20;;;;;;5074626;28;20548;-88
2022/03/28 01:40:31;;;;;;;11.98;9.10;;;6.80;59.20;;;;;;5070263;28;20290;-88
2022/03/28 01:42:59;;;;;;;13.57;8.82;;;6.90;58.70;;;;;;5069357;28;20268;-88
2022/03/28 01:45:27;;;;;;;12.85;8.45;;;6.90;58.40;;;;;;5085083;28;20686;-88
2022/03/28 01:47:54;;;;;;;13.82;9.50;;;6.90;58.20;;;;;;5080069;28;20207;-88
2022/03/28 01:50:22;;;;;;;13.70;9.73;;;6.80;58.40;;;;;;5068870;28;20210;-88
2022/03/28 01:52:49;;;;;;;17.02;9.30;;;6.70;58.30;;;;;;5068288;28;20607;-87
2022/03/28 01:55:17;;;;;;;14.57;8.15;;;6.80;58.30;;;;;;5068069;28;20195;-88
2022/03/28 01:57:46;;;;;;;11.48;8.05;;;6.70;58.20;;;;;;5076248;28;20264;-88
2022/03/28 02:00:16;;;;;;;9.85;7.93;;;6.80;58.10;;;;;;5071971;28;20693;-88
2022/03/28 02:02:43;;;;;;;13.10;9.00;;;6.80;58.00;;;;;;5082794;28;20714;-88
2022/03/28 02:05:11;;;;;;;14.65;8.25;;;6.70;58.20;;;;;;5071321;28;20219;-88
2022/03/28 02:07:40;;;;;;;14.18;9.48;;;6.70;58.60;;;;;;5073773;28;20612;-87
2022/03/28 02:10:08;;;;;;;14.75;9.13;;;6.70;58.10;;;;;;5080155;28;20666;-87
2022/03/28 02:12:35;;;;;;;12.45;8.75;;;6.80;60.70;;;;;;5073720;28;20252;-88
2022/03/28 02:15:05;;;;;;;12.60;8.10;;;6.70;58.10;;;;;;5088471;28;20290;-87
2022/03/28 02:17:32;;;;;;;9.90;7.97;;;6.70;58.60;;;;;;5080869;28;20219;-88
2022/03/28 02:19:59;;;;;;;9.45;8.38;;;6.60;58.50;;;;;;5088977;28;20206;-87
2022/03/28 02:22:26;;;;;;;18.85;9.15;;;6.50;58.20;;;;;;5080291;28;20285;-88
2022/03/28 02:24:53;;;;;;;12.48;8.98;;;6.50;58.20;;;;;;5072903;28;20198;-88
2022/03/28 02:27:20;;;;;;;13.57;9.07;;;6.50;58.20;;;;;;5085845;28;20198;-88
2022/03/28 02:29:47;;;;;;;11.48;9.68;;;6.60;58.30;;;;;;5068002;28;20674;-88
2022/03/28 02:32:15;;;;;;;14.43;8.98;;;6.60;58.30;;;;;;5079724;28;20517;-88
2022/03/28 02:34:42;;;;;;;12.57;9.45;;;6.60;58.10;;;;;;5068051;28;20235;-88
2022/03/28 02:37:09;;;;;;;13.52;9.40;;;6.60;58.10;;;;;;5069029;28;20577;-88
2022/03/28 02:39:36;;;;;;;12.77;8.40;;;6.60;58.10;;;;;;5068439;28;20211;-87
2022/03/28 02:42:04;;;;;;;16.10;10.82;;;6.60;58.00;;;;;;5079490;28;20199;-87
2022/03/28 02:44:31;;;;;;;14.45;9.98;;;6.60;58.00;;;;;;5087846;28;20612;-88
2022/03/28 02:46:58;;;;;;;20.15;10.25;;;6.60;57.80;;;;;;5079742;28;20218;-88
2022/03/28 02:49:26;;;;;;;16.35;10.15;;;6.60;57.50;;;;;;5087881;28;20263;-88
2022/03/28 02:51:53;;;;;;;13.20;9.65;;;6.70;57.30;;;;;;5076012;28;20256;-88
2022/03/28 02:54:20;;;;;;;17.55;10.27;;;6.70;57.00;;;;;;5088386;28;20722;-88
2022/03/28 02:56:48;;;;;;;13.27;9.63;;;6.70;57.00;;;;;;5073973;28;20717;-88
2022/03/28 02:59:14;;;;;;;13.70;10.15;;;6.70;57.50;;;;;;5071086;28;20302;-88
2022/03/28 03:01:44;;;;;;;17.05;9.80;;;6.70;57.40;;;;;;5080610;28;20199;-87
2022/03/28 03:04:11;;;;;;;15.52;11.18;;;6.60;57.50;;;;;;5074644;28;20700;-88
2022/03/28 03:06:39;;;;;;;17.27;9.25;;;6.70;57.30;;;;;;5071485;28;20662;-88
2022/03/28 03:09:06;;;;;;;14.38;9.10;;;6.60;56.80;;;;;;5092547;28;20319;-87
2022/03/28 03:11:35;;;;;;;16.10;9.20;;;6.70;57.30;;;;;;5090788;28;20228;-88
2022/03/28 03:14:03;;;;;;;15.60;10.50;;;6.60;56.40;;;;;;5085655;28;20481;-88
2022/03/28 03:16:30;;;;;;;15.60;10.23;;;6.60;56.70;;;;;;5080327;28;20565;-88
2022/03/28 03:18:57;;;;;;;13.88;8.80;;;6.70;56.60;;;;;;5078222;28;20285;-88
2022/03/28 03:21:27;;;;;;;16.27;9.88;;;6.70;56.40;;;;;;5092517;28;20397;-87
2022/03/28 03:23:55;;;;;;;15.45;8.95;;;6.70;56.20;;;;;;5074797;28;20253;-88
2022/03/28 03:26:22;;;;;;;18.23;10.18;;;6.70;56.00;;;;;;5071099;28;20199;-88
2022/03/28 03:28:49;;;;;;;13.65;10.32;;;6.70;55.90;;;;;;5073080;28;20308;-87
2022/03/28 03:31:16;;;;;;;12.15;8.85;;;6.70;56.00;;;;;;5082754;28;20678;-88
2022/03/28 03:33:42;;;;;;;12.93;9.50;;;6.60;55.90;;;;;;5073327;28;20215;-88
2022/03/28 03:36:09;;;;;;;14.65;10.27;;;6.70;56.10;;;;;;5071150;28;20207;-88
2022/03/28 03:38:36;;;;;;;18.80;10.90;;;6.60;56.90;;;;;;5084882;28;20313;-88
2022/03/28 03:41:04;;;;;;;14.07;9.55;;;6.60;56.80;;;;;;5079812;28;20229;-88
2022/03/28 03:43:31;;;;;;;14.48;9.35;;;6.50;56.40;;;;;;5080460;28;20260;-88
2022/03/28 03:45:58;;;;;;;10.77;9.00;;;6.60;56.70;;;;;;5072582;28;20602;-86
2022/03/28 03:48:26;;;;;;;16.77;9.55;;;6.50;56.70;;;;;;5082486;28;20207;-88
2022/03/28 03:50:54;;;;;;;12.60;10.20;;;6.50;56.80;;;;;;5071951;28;20268;-88
2022/03/28 03:53:22;;;;;;;18.05;8.98;;;6.50;57.00;;;;;;5085877;28;20569;-88
2022/03/28 03:55:49;;;;;;;15.10;10.25;;;6.50;56.90;;;;;;5089561;28;20206;-87
2022/03/28 03:58:17;;;;;;;16.33;10.20;;;6.50;56.70;;;;;;5071439;28;20226;-88
2022/03/28 04:00:44;;;;;;;14.55;8.50;;;6.50;57.20;;;;;;5074004;28;20297;-88
2022/03/28 04:03:11;;;;;;;21.40;11.68;;;6.50;56.80;;;;;;5073755;28;20203;-88
2022/03/28 04:05:38;;;;;;;17.50;10.52;;;6.40;56.80;;;;;;5072831;28;20230;-88
2022/03/28 04:08:06;;;;;;;19.05;9.30;;;6.30;56.60;;;;;;5077666;28;20238;-88
2022/03/28 04:10:34;;;;;;;20.48;10.05;;;6.30;56.80;;;;;;5082298;28;20199;-88
2022/03/28 04:13:01;;;;;;;25.17;10.35;;;6.30;56.80;;;;;;5086639;28;20198;-88
2022/03/28 04:15:29;;;;;;;14.98;9.13;;;6.30;56.90;;;;;;5088636;28;20238;-87
2022/03/28 04:17:56;;;;;;;19.73;9.82;;;6.30;56.80;;;;;;5074009;28;20254;-88
2022/03/28 04:20:24;;;;;;;13.68;8.93;;;6.30;56.70;;;;;;5076379;28;20199;-88
2022/03/28 04:22:51;;;;;;;14.00;9.75;;;6.30;57.00;;;;;;5077915;28;20198;-87
2022/03/28 04:25:18;;;;;;;17.63;8.82;;;6.40;56.50;;;;;;5073436;28;20203;-88
2022/03/28 04:27:46;;;;;;;14.52;9.35;;;6.50;56.30;;;;;;5080971;28;20191;-88
2022/03/28 04:30:13;;;;;;;20.48;10.50;;;6.50;56.10;;;;;;5090688;28;20676;-88
2022/03/28 04:32:42;;;;;;;14.70;10.73;;;6.50;56.40;;;;;;5071487;28;20796;-88
2022/03/28 04:35:11;;;;;;;14.85;10.45;;;6.50;56.80;;;;;;5069109;28;20203;-88
2022/03/28 04:37:40;;;;;;;20.77;10.63;;;6.50;56.80;;;;;;5062518;28;20204;-88
2022/03/28 04:40:09;;;;;;;11.88;10.70;;;6.50;56.60;;;;;;5063610;28;20195;-88
2022/03/28 04:42:37;;;;;;;17.83;11.27;;;6.50;56.70;;;;;;5070469;28;20203;-87
2022/03/28 04:45:06;;;;;;;16.45;11.57;;;6.40;56.90;;;;;;5065363;28;20257;-87
2022/03/28 04:47:33;;;;;;;20.08;11.43;;;6.30;57.10;;;;;;5066609;28;20280;-88
2022/03/28 04:50:02;;;;;;;16.98;10.20;;;6.20;57.60;;;;;;5066095;28;20231;-88
2022/03/28 04:52:29;;;;;;;16.65;11.90;;;6.20;57.60;;;;;;5070152;28;20260;-87
2022/03/28 04:54:56;;;;;;;19.55;11.77;;;6.30;57.40;;;;;;5060872;28;20302;-88
2022/03/28 04:57:22;;;;;;;18.80;11.23;;;6.30;57.30;;;;;;5069469;28;20222;-88
2022/03/28 04:59:50;;;;;;;16.05;10.50;;;6.30;57.40;;;;;;5068360;28;20261;-90
2022/03/28 05:02:17;;;;;;;14.80;10.68;;;6.20;57.40;;;;;;5069153;28;20207;-89
2022/03/28 05:04:44;;;;;;;37.25;13.30;;;6.10;57.60;;;;;;5076645;28;20194;-89
2022/03/28 05:07:12;;;;;;;31.30;13.98;;;5.90;58.10;;;;;;5077793;28;20264;-89
2022/03/28 05:09:39;;;;;;;23.88;11.07;;;5.70;58.60;;;;;;5087299;28;20398;-89
2022/03/28 05:12:07;;;;;;;24.73;10.65;;;5.80;58.60;;;;;;5073889;28;20214;-89
2022/03/28 05:14:34;;;;;;;20.90;11.15;;;5.70;58.50;;;;;;5080808;28;20198;-87
2022/03/28 05:17:01;;;;;;;16.35;10.55;;;5.70;58.60;;;;;;5070992;28;20215;-88
2022/03/28 05:19:28;;;;;;;20.75;10.98;;;5.60;58.50;;;;;;5078016;28;20637;-88
2022/03/28 05:21:55;;;;;;;18.65;11.93;;;5.80;59.20;;;;;;5085616;28;20211;-88
2022/03/28 05:24:23;;;;;;;35.00;11.32;;;5.90;58.40;;;;;;5072613;28;20648;-88
2022/03/28 05:26:50;;;;;;;17.10;11.10;;;5.80;58.50;;;;;;5071655;28;20195;-88
2022/03/28 05:29:18;;;;;;;18.90;10.93;;;5.70;61.90;;;;;;5087916;28;20268;-89
2022/03/28 05:31:46;;;;;;;22.45;11.95;;;5.80;59.00;;;;;;5077306;28;20207;-88
2022/03/28 05:34:12;;;;;;;18.75;11.15;;;5.90;58.50;;;;;;5074072;28;20224;-88
2022/03/28 05:36:40;;;;;;;16.05;11.65;;;5.90;59.20;;;;;;5074653;28;20203;-88
2022/03/28 05:39:07;;;;;;;21.77;10.27;;;5.90;60.00;;;;;;5072336;28;20662;-89
2022/03/28 05:41:36;;;;;;;32.90;12.05;;;5.80;60.00;;;;;;5080338;28;20190;-88
2022/03/28 05:44:04;;;;;;;24.35;12.07;;;5.70;59.00;;;;;;5074531;28;20292;-88
2022/03/28 05:46:31;;;;;;;15.52;10.65;;;6.10;62.00;;;;;;5067970;28;20206;-88
2022/03/28 05:48:58;;;;;;;18.05;10.40;;;5.70;62.90;;;;;;5073431;28;20199;-88
2022/03/28 05:51:25;;;;;;;20.58;10.43;;;5.70;61.70;;;;;;5072619;28;20203;-88
2022/03/28 05:53:53;;;;;;;21.85;10.38;;;5.70;60.90;;;;;;5071217;28;20332;-88
2022/03/28 05:56:20;;;;;;;23.45;12.77;;;7.50;62.50;;;;;;5070841;28;20199;-88
2022/03/28 05:58:48;;;;;;;16.50;10.98;;;5.90;58.90;;;;;;5081957;28;20219;-88
2022/03/28 06:01:15;;;;;;;20.77;10.45;;;5.90;58.50;;;;;;5076094;28;20211;-88
2022/03/28 06:03:42;;;;;;;52.35;11.05;;;6.00;58.90;;;;;;5085670;28;20195;-88
2022/03/28 06:06:09;;;;;;;20.23;11.00;;;6.00;58.90;;;;;;5070605;28;20207;-88
2022/03/28 06:08:36;;;;;;;20.13;11.48;;;6.00;59.00;;;;;;5089209;28;20202;-88
2022/03/28 06:11:04;;;;;;;46.22;27.27;;;6.10;58.60;;;;;;5057780;28;20215;-88
2022/03/28 06:13:31;;;;;;;28.48;17.83;;;6.10;59.40;;;;;;5071544;28;20195;-89
2022/03/28 06:15:59;;;;;;;18.58;11.85;;;4.30;57.40;;;;;;5063087;28;20206;-88
2022/03/28 06:18:27;;;;;;;23.48;11.55;;;6.20;58.90;;;;;;5067692;28;20207;-89
2022/03/28 06:20:54;;;;;;;23.48;11.75;;;6.30;58.60;;;;;;5081581;28;20206;-88
2022/03/28 06:23:21;;;;;;;15.90;11.45;;;6.30;58.40;;;;;;5075677;28;20272;-89
2022/03/28 06:25:48;;;;;;;14.43;10.90;;;6.40;58.30;;;;;;5070298;28;20207;-88
2022/03/28 06:28:18;;;;;;;18.23;10.68;;;7.00;58.50;;;;;;5067502;28;20191;-88
2022/03/28 06:30:45;;;;;;;17.88;11.23;;;6.40;58.00;;;;;;5076667;28;20198;-88
2022/03/28 06:33:13;;;;;;;16.02;11.15;;;8.60;59.80;;;;;;5089328;28;20461;-89
2022/03/28 06:35:41;;;;;;;16.10;10.00;;;7.30;58.40;;;;;;5084552;28;20215;-88
2022/03/28 06:38:08;;;;;;;18.80;11.30;;;6.50;58.10;;;;;;5088814;28;20210;-88
2022/03/28 06:40:35;;;;;;;14.75;10.77;;;6.50;57.60;;;;;;5086945;28;20198;-88
2022/03/28 06:43:02;;;;;;;17.88;11.88;;;6.70;57.50;;;;;;5077655;28;20215;-86
2022/03/28 06:45:29;;;;;;;17.80;10.68;;;6.80;57.50;;;;;;5065765;28;20205;-87
2022/03/28 06:47:56;;;;;;;17.73;10.82;;;6.70;59.40;;;;;;5064002;28;20221;-86
2022/03/28 06:50:27;;;;;;;15.57;10.70;;;6.90;57.60;;;;;;5069300;28;20256;-86
2022/03/28 06:52:54;;;;;;;13.40;10.82;;;7.00;57.70;;;;;;5068769;28;20274;-85
2022/03/28 06:55:21;;;;;;;12.93;10.77;;;7.00;57.80;;;;;;5066300;28;20265;-86
2022/03/28 06:57:48;;;;;;;14.70;10.45;;;7.10;57.30;;;;;;5065673;28;20225;-86
2022/03/28 07:00:17;;;;;;;16.27;10.35;;;7.30;57.20;;;;;;5068083;28;20219;-87
2022/03/28 07:02:45;;;;;;;19.60;10.82;;;7.40;57.10;;;;;;5061525;28;20200;-86
2022/03/28 07:05:12;;;;;;;13.57;9.30;;;7.50;56.80;;;;;;5062326;28;20219;-86
2022/03/28 07:07:41;;;;;;;14.75;9.60;;;7.80;59.20;;;;;;5064833;28;20695;-87
2022/03/28 07:10:09;;;;;;;17.65;11.00;;;7.70;56.70;;;;;;5058163;28;20318;-85
2022/03/28 07:12:36;;;;;;;16.00;11.55;;;8.00;56.50;;;;;;5066905;28;20681;-86
2022/03/28 07:15:03;;;;;;;18.25;10.90;;;8.10;56.20;;;;;;5070496;28;20199;-86
2022/03/28 07:17:30;;;;;;;17.08;10.80;;;8.20;56.20;;;;;;5071523;28;20246;-86
2022/03/28 07:19:57;;;;;;;17.33;11.57;;;8.20;56.20;;;;;;5067365;28;20207;-88
2022/03/28 07:22:24;;;;;;;18.95;11.30;;;8.40;56.40;;;;;;5068649;28;20253;-88
2022/03/28 07:24:52;;;;;;;18.63;11.10;;;8.60;56.00;;;;;;5068664;28;20276;-89
2022/03/28 07:27:26;;;;;;;20.80;12.85;;;8.60;56.30;;;;;;5068716;28;20654;-90
2022/03/28 07:29:56;;;;;;;16.40;11.73;;;9.30;58.20;;;;;;5067984;28;20202;-91
2022/03/28 07:32:23;;;;;;;20.33;11.93;;;9.10;58.10;;;;;;5071868;28;20264;-86
2022/03/28 07:34:51;;;;;;;15.23;10.45;;;9.10;55.50;;;;;;5073887;28;20211;-90
2022/03/28 07:37:19;;;;;;;25.45;11.55;;;9.20;55.40;;;;;;5065189;28;20193;-89
2022/03/28 07:39:46;;;;;;;16.17;10.38;;;10.20;55.10;;;;;;5067131;28;20201;-88
2022/03/28 07:42:15;;;;;;;16.95;12.13;;;9.50;54.80;;;;;;5067831;28;20227;-89
2022/03/28 07:44:42;;;;;;;18.20;9.65;;;9.50;54.80;;;;;;5060665;28;20261;-89
2022/03/28 07:47:10;;;;;;;17.52;11.65;;;9.60;54.80;;;;;;5071299;28;20210;-88
2022/03/28 07:49:37;;;;;;;21.98;11.93;;;9.70;54.40;;;;;;5066428;28;20264;-87
2022/03/28 07:52:06;;;;;;;15.88;11.55;;;9.80;54.00;;;;;;5073242;28;20206;-88
2022/03/28 07:54:33;;;;;;;14.88;11.20;;;10.10;53.30;;;;;;5071399;28;20198;-88
2022/03/28 07:57:00;;;;;;;16.38;11.15;;;10.20;52.70;;;;;;5065718;28;20194;-88
2022/03/28 07:59:29;;;;;;;17.20;11.43;;;10.30;53.20;;;;;;5076213;28;20233;-89
2022/03/28 08:01:56;;;;;;;17.58;11.63;;;10.40;53.20;;;;;;5072531;28;20919;-89
2022/03/28 08:04:23;;;;;;;20.23;12.48;;;10.60;52.60;;;;;;5070611;28;20605;-87
2022/03/28 08:06:50;;;;;;;17.25;11.10;;;10.70;52.70;;;;;;5069813;28;20281;-88
2022/03/28 08:09:17;;;;;;;17.97;10.83;;;10.80;52.90;;;;;;5070369;28;20711;-88
2022/03/28 08:11:44;;;;;;;12.50;10.27;;;10.80;52.30;;;;;;5070677;28;21031;-87
2022/03/28 08:14:11;;;;;;;19.60;11.03;;;11.00;52.40;;;;;;5065538;28;20678;-88
2022/03/28 08:16:41;;;;;;;17.30;11.37;;;11.10;52.80;;;;;;5065546;28;21062;-86
2022/03/28 08:19:08;;;;;;;16.30;11.33;;;11.30;51.40;;;;;;5073371;28;20662;-87
2022/03/28 08:21:36;;;;;;;18.43;11.80;;;11.50;51.30;;;;;;5062683;28;20702;-88
2022/03/28 08:24:10;;;;;;;20.53;12.63;;;11.60;51.90;;;;;;5067216;28;20635;-89
2022/03/28 08:26:39;;;;;;;17.60;11.67;;;11.60;51.70;;;;;;5065883;28;20712;-89
2022/03/28 08:29:07;;;;;;;20.20;11.80;;;11.80;51.00;;;;;;5072196;28;20609;-89
2022/03/28 08:31:34;;;;;;;17.57;11.87;;;;;;;;;;5069541;28;20660;-89
2022/03/28 08:34:03;;;;;;;17.57;12.30;;;12.10;51.00;;;;;;5061725;28;20622;-89
2022/03/28 08:36:30;;;;;;;18.63;12.77;;;12.20;51.60;;;;;;5065743;28;21020;-87
2022/03/28 08:38:57;;;;;;;23.87;13.73;;;12.30;51.70;;;;;;5069793;28;21046;-88
2022/03/28 08:41:27;;;;;;;18.00;14.33;;;12.50;50.70;;;;;;5069016;28;20613;-89
2022/03/28 08:43:57;;;;;;;15.83;11.53;;;12.60;50.10;;;;;;5071660;28;20721;-88
2022/03/28 08:46:25;;;;;;;18.20;12.20;;;12.70;49.80;;;;;;5069005;28;20617;-87
2022/03/28 08:48:54;;;;;;;17.40;11.57;;;12.80;50.50;;;;;;5070277;28;20625;-87
2022/03/28 08:51:23;;;;;;;18.73;12.10;;;13.00;50.80;;;;;;5071625;28;20721;-87
2022/03/28 08:53:50;;;;;;;23.57;13.00;;;13.10;49.60;;;;;;5070714;28;20639;-88
2022/03/28 08:56:18;;;;;;;17.67;12.03;;;13.30;50.00;;;;;;5071034;28;20728;-87
2022/03/28 08:58:45;;;;;;;19.40;12.00;;;13.30;50.70;;;;;;5066831;28;20637;-89
2022/03/28 09:01:12;;;;;;;17.83;12.67;;;13.40;50.00;;;;;;5071070;28;20625;-89
2022/03/28 09:03:40;;;;;;;18.57;12.20;;;13.60;49.50;;;;;;5063102;28;21277;-88
2022/03/28 09:06:31;;;;;;;22.60;13.43;;;13.70;49.80;;;;;;5067183;28;21195;-87
2022/03/28 09:09:13;;;;;;;18.57;13.10;;;13.80;49.50;;;;;;5070610;28;20621;-88
2022/03/28 09:11:42;;;;;;;17.50;11.80;;;13.90;49.40;;;;;;5069872;28;20660;-88
2022/03/28 09:14:12;;;;;;;17.10;12.80;;;14.00;49.20;;;;;;5068775;28;20629;-88
2022/03/28 09:16:40;;;;;;;18.77;12.40;;;14.10;49.00;;;;;;5067463;28;20624;-87
2022/03/28 09:19:12;;;;;;;17.83;11.50;;;14.40;49.00;;;;;;5068915;28;20703;-87
2022/03/28 09:21:50;;;;;;;15.77;11.90;;;14.40;48.40;;;;;;5072518;28;20624;-85
2022/03/28 09:24:17;;;;;;;18.03;13.87;;;14.40;48.30;;;;;;5069455;28;21013;-85
2022/03/28 09:26:44;;;;;;;23.37;14.23;;;14.70;49.50;;;;;;5068372;28;20682;-85
2022/03/28 09:29:11;;;;;;;20.83;14.30;;;14.70;48.40;;;;;;5068317;28;20609;-85
2022/03/28 09:31:42;;;;;;;22.27;12.67;;;15.00;47.00;;;;;;5068514;28;20682;-85
2022/03/28 09:34:14;;;;;;;20.47;13.50;;;15.50;48.70;;;;;;5072874;28;20647;-88
2022/03/28 09:36:49;;;;;;;21.33;13.40;;;15.40;48.60;;;;;;5075173;28;20623;-87
2022/03/28 09:39:19;;;;;;;18.97;12.37;;;15.30;47.40;;;;;;5079786;28;20700;-86
2022/03/28 09:41:58;;;;;;;20.43;12.73;;;15.50;47.30;;;;;;5082089;28;21188;-87
2022/03/28 09:44:37;;;;;;;21.37;14.23;;;15.60;47.40;;;;;;5073919;28;21200;-87
2022/03/28 09:47:11;;;;;;;18.50;12.37;;;15.60;47.60;;;;;;5070389;28;20621;-87
2022/03/28 09:49:41;;;;;;;18.03;12.53;;;15.80;47.10;;;;;;5077628;28;20651;-87
2022/03/28 09:52:11;;;;;;;20.00;12.30;;;15.90;47.20;;;;;;5069487;28;20629;-86
2022/03/28 09:54:46;;;;;;;20.43;13.23;;;16.00;46.40;;;;;;5076660;28;20620;-87
2022/03/28 09:57:14;;;;;;;21.90;13.20;;;16.20;46.60;;;;;;5064025;28;20621;-87
2022/03/28 09:59:42;;;;;;;18.00;13.50;;;16.30;46.40;;;;;;5066294;28;20747;-88
2022/03/28 10:02:17;;;;;;;22.67;13.30;;;16.40;45.80;;;;;;5067239;28;20722;-87
2022/03/28 10:04:46;;;;;;;22.93;13.37;;;16.50;46.20;;;;;;5061788;28;21227;-87
2022/03/28 10:07:15;;;;;;;20.90;12.63;;;16.60;45.70;;;;;;5071366;28;20621;-87
2022/03/28 10:09:42;;;;;;;14.97;11.73;;;16.80;45.70;;;;;;5071380;28;20696;-87
2022/03/28 10:12:09;;;;;;;19.83;12.53;;;17.10;46.60;;;;;;5066116;28;20631;-86
2022/03/28 10:14:37;;;;;;;16.60;12.20;;;17.30;44.80;;;;;;5069843;28;20690;-87
2022/03/28 10:17:06;;;;;;;23.43;14.70;;;17.10;44.00;;;;;;5067828;28;20690;-86
2022/03/28 10:19:36;;;;;;;17.13;13.13;;;17.20;45.20;;;;;;5067367;28;20779;-88
2022/03/28 10:22:08;;;;;;;23.90;13.93;;;17.30;44.90;;;;;;5060003;28;20722;-87
2022/03/28 10:24:37;;;;;;;22.70;13.07;;;17.40;45.30;;;;;;5055272;28;20651;-87
2022/03/28 10:27:05;;;;;;;21.03;13.43;;;17.60;45.20;;;;;;5066949;28;21084;-87
2022/03/28 10:29:36;;;;;;;22.57;13.60;;;17.70;44.60;;;;;;5073335;28;20646;-87
2022/03/28 10:32:08;;;;;;;23.73;14.10;;;17.70;44.40;;;;;;5082430;28;20627;-87
2022/03/28 10:34:48;;;;;;;17.30;12.90;;;17.70;43.10;;;;;;5072765;28;20675;-88
2022/03/28 10:37:33;;;;;;;17.27;13.00;;;17.90;42.50;;;;;;5067246;28;20672;-87
2022/03/28 10:40:22;;;;;;;20.80;14.63;;;17.90;42.50;;;;;;5070373;28;20725;-87
2022/03/28 10:42:52;;;;;;;21.97;13.50;;;17.90;42.00;;;;;;5070992;28;20661;-87
2022/03/28 10:45:23;;;;;;;17.97;13.23;;;18.10;40.90;;;;;;5072196;28;20730;-86
2022/03/28 10:47:54;;;;;;;18.03;12.27;;;18.10;41.00;;;;;;5067875;28;20635;-87
2022/03/28 10:50:26;;;;;;;17.57;12.33;;;18.20;40.90;;;;;;5076382;28;21032;-87
2022/03/28 10:53:14;;;;;;;15.37;11.00;;;18.40;41.00;;;;;;5079458;28;21039;-87
2022/03/28 10:55:48;;;;;;;12.47;10.90;;;18.50;41.80;;;;;;5068199;28;20613;-87
2022/03/28 10:58:18;;;;;;;17.83;13.77;;;18.50;39.70;;;;;;5067619;28;20643;-87
2022/03/28 11:01:23;;;;;;;16.07;11.77;;;18.60;39.80;;;;;;5072584;28;20620;-86
2022/03/28 11:03:53;;;;;;;14.93;11.33;;;18.50;41.50;;;;;;5079393;28;20948;-87
2022/03/28 11:06:42;;;;;;;17.97;11.57;;;18.60;40.60;;;;;;5067350;28;20724;-86
2022/03/28 11:09:09;;;;;;;14.80;11.83;;;18.90;40.20;;;;;;5067156;28;21254;-86
2022/03/28 11:11:55;;;;;;;14.97;12.17;;;19.00;39.60;;;;;;5066786;28;20625;-87
2022/03/28 11:14:39;;;;;;;25.63;14.63;;;19.10;41.00;;;;;;5067005;28;20729;-87
2022/03/28 11:17:14;;;;;;;18.43;12.93;;;19.10;40.60;;;;;;5065041;28;20736;-85
2022/03/28 11:19:53;;;;;;;19.97;13.20;;;19.10;40.40;;;;;;5069506;28;20653;-85
2022/03/28 11:22:37;;;;;;;18.43;13.27;;;19.10;40.20;;;;;;5064174;28;20649;-86
2022/03/28 11:25:05;;;;;;;22.87;14.50;;;19.10;40.40;;;;;;5073524;28;20701;-86
2022/03/28 11:27:37;;;;;;;16.43;11.60;;;19.10;40.80;;;;;;5069182;28;20652;-88
2022/03/28 11:30:10;;;;;;;18.30;14.53;;;18.90;40.80;;;;;;5064070;28;20638;-85
2022/03/28 11:32:38;;;;;;;15.83;13.60;;;19.20;40.40;;;;;;5069227;28;20628;-86
2022/03/28 11:35:09;;;;;;;21.30;14.00;;;19.20;40.10;;;;;;5066689;28;20707;-85
2022/03/28 11:37:37;;;;;;;19.77;13.57;;;19.10;39.00;;;;;;5069975;28;21244;-85
2022/03/28 11:40:07;;;;;;;16.87;13.30;;;19.00;39.70;;;;;;5070204;28;20730;-86
2022/03/28 11:42:37;;;;;;;18.77;13.30;;;19.10;41.40;;;;;;5070875;28;20659;-84
2022/03/28 11:45:08;;;;;;;21.07;14.10;;;19.20;40.80;;;;;;5068726;28;20859;-86
2022/03/28 11:47:37;;;;;;;20.80;14.57;;;19.20;41.00;;;;;;5069345;28;20658;-87
2022/03/28 11:50:07;;;;;;;22.77;14.20;;;19.30;41.30;;;;;;5067692;28;20617;-84
2022/03/28 11:52:35;;;;;;;21.53;14.83;;;19.30;41.20;;;;;;5068647;28;20617;-85
2022/03/28 11:55:03;;;;;;;23.07;14.00;;;19.20;40.70;;;;;;5068879;28;20753;-86
2022/03/28 12:00:20;;;;;;;26.13;16.10;;;19.30;41.90;;;;;;5079465;28;20659;-85
2022/03/28 12:02:52;;;;;;;21.37;14.20;;;19.30;40.50;;;;;;5082087;28;20666;-86
2022/03/28 12:05:29;;;;;;;23.33;15.43;;;19.30;40.30;;;;;;5071614;28;21075;-85
2022/03/28 12:07:57;;;;;;;19.47;13.20;;;19.10;39.50;;;;;;5068516;28;20698;-86
2022/03/28 12:10:26;;;;;;;18.47;14.17;;;19.10;39.30;;;;;;5079318;28;20714;-85
2022/03/28 12:12:53;;;;;;;18.47;13.03;;;18.90;38.60;;;;;;5077674;28;20641;-86
2022/03/28 12:15:30;;;;;;;23.80;14.63;;;18.90;38.70;;;;;;5069210;28;20660;-86
2022/03/28 12:17:59;;;;;;;18.83;13.20;;;18.90;39.00;;;;;;5069768;28;20655;-86
2022/03/28 12:20:29;;;;;;;19.13;14.43;;;19.10;40.00;;;;;;5070085;28;20781;-85
2022/03/28 12:22:56;;;;;;;19.23;14.90;;;19.00;39.00;;;;;;5086728;28;20984;-86
2022/03/28 12:25:25;;;;;;;27.73;15.00;;;19.10;39.30;;;;;;5085416;28;20640;-85
2022/03/28 12:27:54;;;;;;;32.30;14.40;;;19.20;39.60;;;;;;5075108;28;20644;-85
2022/03/28 12:30:25;;;;;;;28.63;16.77;;;19.30;40.00;;;;;;5070594;28;20702;-85
2022/03/28 12:32:53;;;;;;;20.47;15.23;;;19.40;39.90;;;;;;5069752;28;20617;-85
2022/03/28 12:35:21;;;;;;;18.97;14.67;;;19.40;40.30;;;;;;5070807;28;20656;-85
2022/03/28 12:37:57;;;;;;;21.77;16.17;;;19.50;40.70;;;;;;5070404;28;21079;-87
2022/03/28 12:40:29;;;;;;;18.70;15.00;;;19.40;39.50;;;;;;5070044;28;20647;-86
2022/03/28 12:42:56;;;;;;;18.57;13.97;;;19.40;39.60;;;;;;5069344;28;20670;-85
2022/03/28 12:45:27;;;;;;;26.70;15.20;;;19.40;40.50;;;;;;5069558;28;20637;-86
2022/03/28 12:48:00;;;;;;;19.90;14.90;;;19.40;40.20;;;;;;5069993;28;20645;-86